sensor_id;sensor_type;location;lat;lon;timestamp;pressure;altitude;pressure_sealevel;temperature;humidity
77482;BME280;66582;43.004;-75.010;2023-02-28T00:01:15;99356.52;;;0.70;37.16
77482;BME280;66582;43.004;-75.010;2023-02-28T00:03:41;99337.40;;;1.62;36.25
77482;BME280;66582;43.004;-75.010;2023-02-28T00:06:07;99333.68;;;0.62;36.85
77482;BME280;66582;43.004;-75.010;2023-02-28T00:08:32;99335.52;;;-0.93;39.96
77482;BME280;66582;43.004;-75.010;2023-02-28T00:10:59;99322.66;;;-0.10;39.05
77482;BME280;66582;43.004;-75.010;2023-02-28T00:13:21;99311.07;;;1.35;37.65
77482;BME280;66582;43.004;-75.010;2023-02-28T00:15:47;99305.77;;;-0.18;37.60
77482;BME280;66582;43.004;-75.010;2023-02-28T00:18:12;99312.38;;;-1.70;41.34
77482;BME280;66582;43.004;-75.010;2023-02-28T00:20:37;99317.20;;;-1.07;41.44
77482;BME280;66582;43.004;-75.010;2023-02-28T00:23:02;99321.60;;;-2.70;43.54
77482;BME280;66582;43.004;-75.010;2023-02-28T00:25:28;99323.59;;;-1.87;43.34
77482;BME280;66582;43.004;-75.010;2023-02-28T00:27:53;99326.09;;;-1.04;41.94
77482;BME280;66582;43.004;-75.010;2023-02-28T00:30:19;99333.87;;;-2.14;44.72
77482;BME280;66582;43.004;-75.010;2023-02-28T00:32:43;99348.63;;;-2.52;44.98
77482;BME280;66582;43.004;-75.010;2023-02-28T00:35:10;99361.27;;;-3.32;46.73
77482;BME280;66582;43.004;-75.010;2023-02-28T00:37:34;99374.46;;;-3.39;46.79
77482;BME280;66582;43.004;-75.010;2023-02-28T00:39:59;99381.83;;;-3.12;47.29
77482;BME280;66582;43.004;-75.010;2023-02-28T00:42:25;99383.36;;;-2.07;44.96
77482;BME280;66582;43.004;-75.010;2023-02-28T00:44:51;99395.26;;;-2.59;45.46
77482;BME280;66582;43.004;-75.010;2023-02-28T00:47:16;99410.77;;;-2.13;44.37
77482;BME280;66582;43.004;-75.010;2023-02-28T00:49:40;99430.63;;;-3.29;47.57
77482;BME280;66582;43.004;-75.010;2023-02-28T00:52:06;99433.46;;;-3.51;48.13
77482;BME280;66582;43.004;-75.010;2023-02-28T00:54:31;99416.35;;;-2.90;47.90
77482;BME280;66582;43.004;-75.010;2023-02-28T00:56:56;99401.88;;;-1.93;45.16
77482;BME280;66582;43.004;-75.010;2023-02-28T00:59:22;99420.04;;;-1.41;44.59
77482;BME280;66582;43.004;-75.010;2023-02-28T01:01:47;99422.36;;;-0.92;43.03
77482;BME280;66582;43.004;-75.010;2023-02-28T01:04:12;99428.94;;;-1.96;44.54
77482;BME280;66582;43.004;-75.010;2023-02-28T01:06:37;99431.22;;;-0.49;42.60
77482;BME280;66582;43.004;-75.010;2023-02-28T01:09:02;99442.50;;;-3.33;49.68
77482;BME280;66582;43.004;-75.010;2023-02-28T01:11:27;99407.98;;;-1.29;46.65
77482;BME280;66582;43.004;-75.010;2023-02-28T01:13:53;99381.92;;;-2.58;53.22
77482;BME280;66582;43.004;-75.010;2023-02-28T01:16:18;99367.43;;;-3.14;61.29
77482;BME280;66582;43.004;-75.010;2023-02-28T01:18:43;99360.46;;;-3.32;62.38
77482;BME280;66582;43.004;-75.010;2023-02-28T01:21:11;99360.26;;;-3.62;66.88
77482;BME280;66582;43.004;-75.010;2023-02-28T01:23:34;99340.27;;;-3.27;66.65
77482;BME280;66582;43.004;-75.010;2023-02-28T01:26:05;99346.44;;;-4.60;71.80
77482;BME280;66582;43.004;-75.010;2023-02-28T01:28:24;99342.79;;;-3.78;70.89
77482;BME280;66582;43.004;-75.010;2023-02-28T01:30:51;99341.22;;;-2.59;67.91
77482;BME280;66582;43.004;-75.010;2023-02-28T01:33:16;99329.92;;;-1.77;67.00
77482;BME280;66582;43.004;-75.010;2023-02-28T01:35:40;99323.26;;;-2.12;67.80
77482;BME280;66582;43.004;-75.010;2023-02-28T01:38:06;99309.69;;;-1.00;63.22
77482;BME280;66582;43.004;-75.010;2023-02-28T01:40:31;99298.30;;;-0.46;63.13
77482;BME280;66582;43.004;-75.010;2023-02-28T01:42:56;99290.36;;;-1.40;64.95
77482;BME280;66582;43.004;-75.010;2023-02-28T01:45:26;99291.01;;;-2.97;66.60
77482;BME280;66582;43.004;-75.010;2023-02-28T01:47:48;99286.48;;;-0.96;65.34
77482;BME280;66582;43.004;-75.010;2023-02-28T01:50:18;99273.22;;;-1.58;65.76
77482;BME280;66582;43.004;-75.010;2023-02-28T01:52:38;99263.95;;;-1.62;65.79
77482;BME280;66582;43.004;-75.010;2023-02-28T01:55:05;99281.47;;;-2.27;68.74
77482;BME280;66582;43.004;-75.010;2023-02-28T01:57:30;99274.57;;;-0.63;63.60
77482;BME280;66582;43.004;-75.010;2023-02-28T01:59:56;99266.52;;;-0.50;61.22
77482;BME280;66582;43.004;-75.010;2023-02-28T02:02:21;99258.48;;;-1.51;64.21
77482;BME280;66582;43.004;-75.010;2023-02-28T02:04:50;99237.76;;;-1.25;63.78
77482;BME280;66582;43.004;-75.010;2023-02-28T02:07:10;99229.75;;;-0.89;63.38
77482;BME280;66582;43.004;-75.010;2023-02-28T02:09:35;99240.81;;;-2.72;66.23
77482;BME280;66582;43.004;-75.010;2023-02-28T02:12:07;99241.06;;;-3.03;70.12
77482;BME280;66582;43.004;-75.010;2023-02-28T02:17:00;99223.06;;;-2.34;70.60
77482;BME280;66582;43.004;-75.010;2023-02-28T02:21:52;99207.65;;;-3.68;72.47
77482;BME280;66582;43.004;-75.010;2023-02-28T02:24:25;99212.48;;;-2.26;69.82
77482;BME280;66582;43.004;-75.010;2023-02-28T02:29:13;99220.24;;;-1.73;65.42
77482;BME280;66582;43.004;-75.010;2023-02-28T02:34:05;99221.67;;;-1.86;66.87
77482;BME280;66582;43.004;-75.010;2023-02-28T02:36:16;99230.31;;;-3.91;73.77
77482;BME280;66582;43.004;-75.010;2023-02-28T02:38:44;99232.74;;;-4.46;76.69
77482;BME280;66582;43.004;-75.010;2023-02-28T02:41:11;99233.29;;;-3.48;74.58
77482;BME280;66582;43.004;-75.010;2023-02-28T02:43:32;99229.84;;;-2.44;73.24
77482;BME280;66582;43.004;-75.010;2023-02-28T02:45:56;99223.76;;;-2.84;71.77
77482;BME280;66582;43.004;-75.010;2023-02-28T02:48:21;99218.79;;;-2.32;70.56
77482;BME280;66582;43.004;-75.010;2023-02-28T02:50:49;99213.02;;;-2.26;69.74
77482;BME280;66582;43.004;-75.010;2023-02-28T02:53:11;99214.92;;;-2.93;72.17
77482;BME280;66582;43.004;-75.010;2023-02-28T02:55:39;99207.02;;;-2.00;69.65
77482;BME280;66582;43.004;-75.010;2023-02-28T02:58:03;99198.66;;;-1.32;67.48
77482;BME280;66582;43.004;-75.010;2023-02-28T03:00:30;99185.89;;;-1.17;64.62
77482;BME280;66582;43.004;-75.010;2023-02-28T03:02:52;99190.43;;;-0.70;63.96
77482;BME280;66582;43.004;-75.010;2023-02-28T03:05:19;99188.60;;;0.39;61.80
77482;BME280;66582;43.004;-75.010;2023-02-28T03:07:41;99181.31;;;-1.45;65.37
77482;BME280;66582;43.004;-75.010;2023-02-28T03:12:39;99185.19;;;-3.67;76.23
77482;BME280;66582;43.004;-75.010;2023-02-28T03:15:05;99182.09;;;-3.98;74.47
77482;BME280;66582;43.004;-75.010;2023-02-28T03:17:33;99165.86;;;-2.41;71.96
77482;BME280;66582;43.004;-75.010;2023-02-28T03:19:57;99164.64;;;-2.28;69.31
77482;BME280;66582;43.004;-75.010;2023-02-28T03:22:24;99153.77;;;-0.63;64.81
77482;BME280;66582;43.004;-75.010;2023-02-28T03:24:45;99143.17;;;0.46;60.78
77482;BME280;66582;43.004;-75.010;2023-02-28T03:27:08;99141.39;;;-0.52;60.52
77482;BME280;66582;43.004;-75.010;2023-02-28T03:29:35;99142.53;;;-2.25;65.36
77482;BME280;66582;43.004;-75.010;2023-02-28T03:31:58;99130.48;;;-0.53;63.59
77482;BME280;66582;43.004;-75.010;2023-02-28T03:34:24;99124.66;;;0.37;59.58
77482;BME280;66582;43.004;-75.010;2023-02-28T03:36:47;99122.91;;;-0.95;61.74
77482;BME280;66582;43.004;-75.010;2023-02-28T03:39:15;99129.52;;;-1.31;62.84
77482;BME280;66582;43.004;-75.010;2023-02-28T03:41:38;99121.47;;;0.18;59.83
77482;BME280;66582;43.004;-75.010;2023-02-28T03:44:05;99128.57;;;-0.23;60.56
77482;BME280;66582;43.004;-75.010;2023-02-28T03:46:28;99131.20;;;-0.19;60.18
77482;BME280;66582;43.004;-75.010;2023-02-28T03:48:55;99128.07;;;0.08;59.44
77482;BME280;66582;43.004;-75.010;2023-02-28T03:51:19;99135.42;;;-0.83;60.21
77482;BME280;66582;43.004;-75.010;2023-02-28T03:53:45;99121.62;;;1.27;56.58
77482;BME280;66582;43.004;-75.010;2023-02-28T03:56:11;99121.03;;;0.58;56.57
77482;BME280;66582;43.004;-75.010;2023-02-28T03:58:37;99114.82;;;-0.19;58.65
77482;BME280;66582;43.004;-75.010;2023-02-28T04:01:01;99104.84;;;0.53;56.33
77482;BME280;66582;43.004;-75.010;2023-02-28T04:03:22;99090.40;;;1.49;55.13
77482;BME280;66582;43.004;-75.010;2023-02-28T04:05:50;99091.40;;;-0.15;56.96
77482;BME280;66582;43.004;-75.010;2023-02-28T04:08:14;99095.55;;;-1.01;62.88
77482;BME280;66582;43.004;-75.010;2023-02-28T04:10:39;99095.63;;;-1.15;63.68
77482;BME280;66582;43.004;-75.010;2023-02-28T04:13:04;99093.14;;;-0.64;60.58
77482;BME280;66582;43.004;-75.010;2023-02-28T04:15:29;99091.46;;;-1.89;62.89
77482;BME280;66582;43.004;-75.010;2023-02-28T04:17:54;99090.40;;;-2.06;66.42
77482;BME280;66582;43.004;-75.010;2023-02-28T04:20:19;99081.43;;;-2.35;67.17
77482;BME280;66582;43.004;-75.010;2023-02-28T04:22:44;99069.44;;;-1.48;63.67
77482;BME280;66582;43.004;-75.010;2023-02-28T04:25:10;99068.26;;;-2.27;67.55
77482;BME280;66582;43.004;-75.010;2023-02-28T04:27:35;99066.88;;;-2.15;69.89
77482;BME280;66582;43.004;-75.010;2023-02-28T04:30:00;99069.43;;;-1.95;67.90
77482;BME280;66582;43.004;-75.010;2023-02-28T04:32:25;99062.31;;;-1.92;70.76
77482;BME280;66582;43.004;-75.010;2023-02-28T04:34:51;99067.84;;;-3.12;75.13
77482;BME280;66582;43.004;-75.010;2023-02-28T04:37:16;99057.02;;;-1.34;70.72
77482;BME280;66582;43.004;-75.010;2023-02-28T04:39:41;99055.18;;;-1.58;68.91
77482;BME280;66582;43.004;-75.010;2023-02-28T04:42:06;99052.81;;;-0.12;64.71
77482;BME280;66582;43.004;-75.010;2023-02-28T04:44:31;99056.37;;;-2.21;67.98
77482;BME280;66582;43.004;-75.010;2023-02-28T04:46:57;99064.96;;;-3.73;78.06
77482;BME280;66582;43.004;-75.010;2023-02-28T04:49:23;99045.97;;;-2.19;73.21
77482;BME280;66582;43.004;-75.010;2023-02-28T04:51:48;99039.63;;;-1.07;69.75
77482;BME280;66582;43.004;-75.010;2023-02-28T04:54:13;99032.97;;;-0.30;66.47
77482;BME280;66582;43.004;-75.010;2023-02-28T04:56:39;99033.74;;;-1.03;67.85
77482;BME280;66582;43.004;-75.010;2023-02-28T04:59:04;99035.17;;;-1.54;70.27
77482;BME280;66582;43.004;-75.010;2023-02-28T05:01:31;99033.22;;;-1.16;68.87
77482;BME280;66582;43.004;-75.010;2023-02-28T05:03:56;99031.97;;;-1.35;69.83
77482;BME280;66582;43.004;-75.010;2023-02-28T05:06:21;99031.69;;;-1.07;68.88
77482;BME280;66582;43.004;-75.010;2023-02-28T05:08:46;99034.75;;;-1.87;72.85
77482;BME280;66582;43.004;-75.010;2023-02-28T05:11:16;99042.29;;;-3.02;79.04
77482;BME280;66582;43.004;-75.010;2023-02-28T05:13:36;99046.07;;;-2.42;75.69
77482;BME280;66582;43.004;-75.010;2023-02-28T05:16:03;99050.91;;;-3.41;80.05
77482;BME280;66582;43.004;-75.010;2023-02-28T05:18:28;99054.47;;;-3.57;82.66
77482;BME280;66582;43.004;-75.010;2023-02-28T05:20:53;99032.95;;;-2.14;78.70
77482;BME280;66582;43.004;-75.010;2023-02-28T05:23:20;99021.60;;;-1.12;72.78
77482;BME280;66582;43.004;-75.010;2023-02-28T05:25:43;99016.32;;;-0.09;69.13
77482;BME280;66582;43.004;-75.010;2023-02-28T05:28:08;99012.66;;;-1.16;69.65
77482;BME280;66582;43.004;-75.010;2023-02-28T05:30:33;99007.69;;;-0.76;71.57
77482;BME280;66582;43.004;-75.010;2023-02-28T05:32:59;99002.90;;;-0.74;68.64
77482;BME280;66582;43.004;-75.010;2023-02-28T05:35:27;99013.04;;;-0.15;69.28
77482;BME280;66582;43.004;-75.010;2023-02-28T05:37:49;99022.17;;;-2.09;74.82
77482;BME280;66582;43.004;-75.010;2023-02-28T05:40:15;99028.35;;;-2.76;78.93
77482;BME280;66582;43.004;-75.010;2023-02-28T05:42:40;99018.52;;;-3.10;81.63
77482;BME280;66582;43.004;-75.010;2023-02-28T05:45:06;99012.34;;;-2.68;80.65
77482;BME280;66582;43.004;-75.010;2023-02-28T05:47:31;99011.49;;;-2.26;80.35
77482;BME280;66582;43.004;-75.010;2023-02-28T05:49:55;99006.20;;;-2.45;80.14
77482;BME280;66582;43.004;-75.010;2023-02-28T05:52:21;98998.57;;;-2.03;79.38
77482;BME280;66582;43.004;-75.010;2023-02-28T05:54:46;98997.97;;;-1.94;78.04
77482;BME280;66582;43.004;-75.010;2023-02-28T05:57:11;98997.18;;;-0.64;72.35
77482;BME280;66582;43.004;-75.010;2023-02-28T05:59:36;98996.13;;;-2.54;75.26
77482;BME280;66582;43.004;-75.010;2023-02-28T06:02:01;98987.56;;;-1.41;74.80
77482;BME280;66582;43.004;-75.010;2023-02-28T06:04:27;98988.23;;;-2.62;78.80
77482;BME280;66582;43.004;-75.010;2023-02-28T06:06:52;98987.48;;;-2.35;81.82
77482;BME280;66582;43.004;-75.010;2023-02-28T06:09:17;98980.64;;;-1.30;76.89
77482;BME280;66582;43.004;-75.010;2023-02-28T06:11:43;98978.92;;;-1.97;74.07
77482;BME280;66582;43.004;-75.010;2023-02-28T06:14:09;98986.77;;;-3.33;84.07
77482;BME280;66582;43.004;-75.010;2023-02-28T06:16:34;98975.98;;;-2.90;84.89
77482;BME280;66582;43.004;-75.010;2023-02-28T06:18:59;98986.41;;;-3.87;86.53
77482;BME280;66582;43.004;-75.010;2023-02-28T06:21:24;98974.20;;;-3.25;87.27
77482;BME280;66582;43.004;-75.010;2023-02-28T06:23:48;98985.55;;;-3.46;84.57
77482;BME280;66582;43.004;-75.010;2023-02-28T06:26:13;98965.38;;;-2.54;83.55
77482;BME280;66582;43.004;-75.010;2023-02-28T06:28:39;98965.86;;;-1.46;79.38
77482;BME280;66582;43.004;-75.010;2023-02-28T06:31:07;98968.97;;;-3.09;82.78
77482;BME280;66582;43.004;-75.010;2023-02-28T06:33:29;98966.88;;;-3.82;88.34
77482;BME280;66582;43.004;-75.010;2023-02-28T06:35:54;98959.00;;;-3.29;85.66
77482;BME280;66582;43.004;-75.010;2023-02-28T06:38:20;98953.14;;;-2.37;79.65
77482;BME280;66582;43.004;-75.010;2023-02-28T06:40:45;98950.27;;;-2.12;79.88
77482;BME280;66582;43.004;-75.010;2023-02-28T06:43:10;98943.23;;;-1.55;77.32
77482;BME280;66582;43.004;-75.010;2023-02-28T06:45:35;98947.18;;;-3.47;84.45
77482;BME280;66582;43.004;-75.010;2023-02-28T06:48:01;98941.42;;;-3.71;86.83
77482;BME280;66582;43.004;-75.010;2023-02-28T06:50:26;98938.57;;;-3.45;86.13
77482;BME280;66582;43.004;-75.010;2023-02-28T06:52:51;98937.51;;;-3.13;87.12
77482;BME280;66582;43.004;-75.010;2023-02-28T06:55:16;98935.52;;;-3.32;87.04
77482;BME280;66582;43.004;-75.010;2023-02-28T06:57:41;98929.56;;;-3.75;87.17
77482;BME280;66582;43.004;-75.010;2023-02-28T07:00:10;98933.20;;;-3.46;87.16
77482;BME280;66582;43.004;-75.010;2023-02-28T07:02:31;98929.02;;;-1.93;80.93
77482;BME280;66582;43.004;-75.010;2023-02-28T07:04:57;98930.31;;;-1.57;76.50
77482;BME280;66582;43.004;-75.010;2023-02-28T07:07:22;98940.38;;;-2.66;78.50
77482;BME280;66582;43.004;-75.010;2023-02-28T07:09:48;98926.26;;;-1.18;77.47
77482;BME280;66582;43.004;-75.010;2023-02-28T07:12:13;98917.11;;;-1.79;79.25
77482;BME280;66582;43.004;-75.010;2023-02-28T07:14:38;98918.28;;;-2.64;81.78
77482;BME280;66582;43.004;-75.010;2023-02-28T07:17:04;98925.81;;;-2.90;82.15
77482;BME280;66582;43.004;-75.010;2023-02-28T07:19:28;98936.09;;;-2.76;81.65
77482;BME280;66582;43.004;-75.010;2023-02-28T07:21:54;98928.79;;;-3.57;86.19
77482;BME280;66582;43.004;-75.010;2023-02-28T07:24:19;98926.23;;;-3.14;87.53
77482;BME280;66582;43.004;-75.010;2023-02-28T07:26:44;98920.19;;;-3.08;86.51
77482;BME280;66582;43.004;-75.010;2023-02-28T07:29:10;98919.40;;;-3.62;87.13
77482;BME280;66582;43.004;-75.010;2023-02-28T07:31:35;98925.58;;;-2.37;84.85
77482;BME280;66582;43.004;-75.010;2023-02-28T07:34:00;98944.62;;;-4.19;85.61
77482;BME280;66582;43.004;-75.010;2023-02-28T07:36:26;98926.67;;;-2.56;84.58
77482;BME280;66582;43.004;-75.010;2023-02-28T07:38:51;98927.33;;;-2.10;80.80
77482;BME280;66582;43.004;-75.010;2023-02-28T07:41:17;98931.99;;;-3.44;84.61
77482;BME280;66582;43.004;-75.010;2023-02-28T07:43:41;98932.66;;;-3.04;85.23
77482;BME280;66582;43.004;-75.010;2023-02-28T07:46:08;98921.08;;;-2.32;80.59
77482;BME280;66582;43.004;-75.010;2023-02-28T07:48:32;98919.49;;;-2.25;77.28
77482;BME280;66582;43.004;-75.010;2023-02-28T07:50:57;98916.12;;;-2.36;79.05
77482;BME280;66582;43.004;-75.010;2023-02-28T07:53:22;98921.49;;;-3.12;79.70
77482;BME280;66582;43.004;-75.010;2023-02-28T07:55:48;98926.58;;;-3.08;83.92
77482;BME280;66582;43.004;-75.010;2023-02-28T07:58:13;98926.67;;;-3.95;87.64
77482;BME280;66582;43.004;-75.010;2023-02-28T08:00:38;98917.52;;;-3.53;84.62
77482;BME280;66582;43.004;-75.010;2023-02-28T08:03:03;98920.31;;;-3.55;82.70
77482;BME280;66582;43.004;-75.010;2023-02-28T08:05:28;98916.40;;;-2.90;81.62
77482;BME280;66582;43.004;-75.010;2023-02-28T08:07:53;98920.02;;;-3.48;88.51
77482;BME280;66582;43.004;-75.010;2023-02-28T08:10:19;98931.39;;;-4.42;88.97
77482;BME280;66582;43.004;-75.010;2023-02-28T08:12:44;98931.05;;;-3.04;85.94
77482;BME280;66582;43.004;-75.010;2023-02-28T08:15:09;98939.80;;;-4.67;89.67
77482;BME280;66582;43.004;-75.010;2023-02-28T08:17:34;98939.06;;;-4.29;89.30
77482;BME280;66582;43.004;-75.010;2023-02-28T08:19:59;98929.82;;;-3.21;87.64
77482;BME280;66582;43.004;-75.010;2023-02-28T08:22:24;98923.63;;;-2.61;83.55
77482;BME280;66582;43.004;-75.010;2023-02-28T08:24:50;98926.41;;;-3.02;83.72
77482;BME280;66582;43.004;-75.010;2023-02-28T08:27:15;98933.59;;;-3.41;84.90
77482;BME280;66582;43.004;-75.010;2023-02-28T08:29:40;98947.42;;;-4.71;88.13
77482;BME280;66582;43.004;-75.010;2023-02-28T08:32:06;98943.74;;;-5.08;91.26
77482;BME280;66582;43.004;-75.010;2023-02-28T08:34:31;98948.97;;;-4.80;90.25
77482;BME280;66582;43.004;-75.010;2023-02-28T08:36:56;98941.52;;;-3.93;90.13
77482;BME280;66582;43.004;-75.010;2023-02-28T08:39:21;98946.86;;;-4.94;90.96
77482;BME280;66582;43.004;-75.010;2023-02-28T08:41:46;98947.33;;;-4.64;92.29
77482;BME280;66582;43.004;-75.010;2023-02-28T08:44:11;98941.63;;;-4.25;88.56
77482;BME280;66582;43.004;-75.010;2023-02-28T08:46:37;98931.52;;;-2.82;86.08
77482;BME280;66582;43.004;-75.010;2023-02-28T08:49:02;98925.58;;;-2.18;80.30
77482;BME280;66582;43.004;-75.010;2023-02-28T08:51:28;98921.35;;;-1.43;75.36
77482;BME280;66582;43.004;-75.010;2023-02-28T08:53:52;98923.27;;;-2.29;79.88
77482;BME280;66582;43.004;-75.010;2023-02-28T08:56:17;98938.67;;;-3.61;81.57
77482;BME280;66582;43.004;-75.010;2023-02-28T08:58:43;98948.85;;;-4.33;85.37
77482;BME280;66582;43.004;-75.010;2023-02-28T09:01:09;98937.67;;;-3.81;86.87
77482;BME280;66582;43.004;-75.010;2023-02-28T09:03:33;98950.45;;;-4.82;90.35
77482;BME280;66582;43.004;-75.010;2023-02-28T09:05:59;98960.02;;;-5.73;92.21
77482;BME280;66582;43.004;-75.010;2023-02-28T09:08:24;98959.04;;;-4.15;90.32
77482;BME280;66582;43.004;-75.010;2023-02-28T09:10:49;98951.16;;;-3.37;86.47
77482;BME280;66582;43.004;-75.010;2023-02-28T09:13:14;98961.02;;;-3.57;83.77
77482;BME280;66582;43.004;-75.010;2023-02-28T09:15:40;98968.78;;;-4.36;86.25
77482;BME280;66582;43.004;-75.010;2023-02-28T09:18:04;98970.27;;;-4.15;83.93
77482;BME280;66582;43.004;-75.010;2023-02-28T09:20:30;98980.49;;;-4.99;87.75
77482;BME280;66582;43.004;-75.010;2023-02-28T09:22:55;98978.24;;;-3.99;86.87
77482;BME280;66582;43.004;-75.010;2023-02-28T09:25:20;98995.37;;;-4.37;83.99
77482;BME280;66582;43.004;-75.010;2023-02-28T09:27:45;99003.03;;;-5.04;88.55
77482;BME280;66582;43.004;-75.010;2023-02-28T09:30:11;98999.20;;;-4.65;87.23
77482;BME280;66582;43.004;-75.010;2023-02-28T09:32:35;98991.41;;;-4.19;87.07
77482;BME280;66582;43.004;-75.010;2023-02-28T09:35:00;98988.36;;;-2.94;81.33
77482;BME280;66582;43.004;-75.010;2023-02-28T09:37:26;99004.44;;;-4.56;82.39
77482;BME280;66582;43.004;-75.010;2023-02-28T09:39:51;99012.03;;;-4.86;83.17
77482;BME280;66582;43.004;-75.010;2023-02-28T09:42:21;99010.28;;;-4.59;85.60
77482;BME280;66582;43.004;-75.010;2023-02-28T09:44:44;99002.02;;;-4.16;83.26
77482;BME280;66582;43.004;-75.010;2023-02-28T09:47:14;98995.19;;;-2.82;77.86
77482;BME280;66582;43.004;-75.010;2023-02-28T09:49:38;99003.52;;;-4.07;80.43
77482;BME280;66582;43.004;-75.010;2023-02-28T09:52:01;99014.57;;;-4.84;84.70
77482;BME280;66582;43.004;-75.010;2023-02-28T09:54:24;99009.92;;;-4.28;82.75
77482;BME280;66582;43.004;-75.010;2023-02-28T09:56:50;99010.05;;;-4.62;83.44
77482;BME280;66582;43.004;-75.010;2023-02-28T09:59:17;99013.16;;;-4.72;82.82
77482;BME280;66582;43.004;-75.010;2023-02-28T10:01:44;99011.63;;;-4.00;82.84
77482;BME280;66582;43.004;-75.010;2023-02-28T10:04:09;99012.61;;;-4.71;85.07
77482;BME280;66582;43.004;-75.010;2023-02-28T10:06:32;99022.71;;;-5.02;83.88
77482;BME280;66582;43.004;-75.010;2023-02-28T10:09:00;99018.06;;;-5.36;86.29
77482;BME280;66582;43.004;-75.010;2023-02-28T10:11:20;99021.78;;;-4.61;87.11
77482;BME280;66582;43.004;-75.010;2023-02-28T10:13:51;99021.00;;;-4.32;85.00
77482;BME280;66582;43.004;-75.010;2023-02-28T10:16:13;99020.62;;;-4.79;84.94
77482;BME280;66582;43.004;-75.010;2023-02-28T10:18:42;99013.46;;;-4.06;84.63
77482;BME280;66582;43.004;-75.010;2023-02-28T10:21:01;99020.55;;;-4.89;85.85
77482;BME280;66582;43.004;-75.010;2023-02-28T10:23:28;99012.14;;;-4.99;84.88
77482;BME280;66582;43.004;-75.010;2023-02-28T10:25:55;99013.38;;;-4.86;85.33
77482;BME280;66582;43.004;-75.010;2023-02-28T10:28:17;99019.44;;;-5.11;85.13
77482;BME280;66582;43.004;-75.010;2023-02-28T10:30:44;99015.12;;;-5.10;84.65
77482;BME280;66582;43.004;-75.010;2023-02-28T10:33:18;99016.27;;;-5.19;85.17
77482;BME280;66582;43.004;-75.010;2023-02-28T10:35:32;99016.06;;;-4.32;87.32
77482;BME280;66582;43.004;-75.010;2023-02-28T10:38:00;99018.78;;;-5.33;89.64
77482;BME280;66582;43.004;-75.010;2023-02-28T10:40:30;99011.11;;;-5.65;90.43
77482;BME280;66582;43.004;-75.010;2023-02-28T10:42:55;99004.86;;;-5.52;90.72
77482;BME280;66582;43.004;-75.010;2023-02-28T10:45:15;98999.89;;;-5.45;88.19
77482;BME280;66582;43.004;-75.010;2023-02-28T10:47:51;98994.10;;;-4.88;89.35
77482;BME280;66582;43.004;-75.010;2023-02-28T10:50:04;98994.59;;;-5.41;89.08
77482;BME280;66582;43.004;-75.010;2023-02-28T10:52:37;98989.22;;;-4.87;86.52
77482;BME280;66582;43.004;-75.010;2023-02-28T10:57:23;98984.65;;;-4.23;83.80
77482;BME280;66582;43.004;-75.010;2023-02-28T10:59:46;98984.99;;;-4.10;83.16
77482;BME280;66582;43.004;-75.010;2023-02-28T11:02:29;98989.51;;;-4.36;80.92
77482;BME280;66582;43.004;-75.010;2023-02-28T11:04:37;98995.28;;;-4.23;81.51
77482;BME280;66582;43.004;-75.010;2023-02-28T11:07:03;98994.77;;;-4.31;81.25
77482;BME280;66582;43.004;-75.010;2023-02-28T11:09:30;99009.93;;;-6.46;89.92
77482;BME280;66582;43.004;-75.010;2023-02-28T11:11:52;98997.39;;;-5.53;90.56
77482;BME280;66582;43.004;-75.010;2023-02-28T11:14:21;98991.74;;;-4.69;87.21
77482;BME280;66582;43.004;-75.010;2023-02-28T11:16:42;98993.16;;;-5.51;88.26
77482;BME280;66582;43.004;-75.010;2023-02-28T11:19:16;98991.27;;;-4.74;86.69
77482;BME280;66582;43.004;-75.010;2023-02-28T11:21:35;98994.73;;;-4.60;87.62
77482;BME280;66582;43.004;-75.010;2023-02-28T11:24:04;98999.25;;;-4.93;85.95
77482;BME280;66582;43.004;-75.010;2023-02-28T11:26:37;98999.56;;;-4.86;84.33
77482;BME280;66582;43.004;-75.010;2023-02-28T11:28:57;98995.87;;;-5.52;87.61
77482;BME280;66582;43.004;-75.010;2023-02-28T11:31:18;99004.59;;;-4.97;84.00
77482;BME280;66582;43.004;-75.010;2023-02-28T11:33:42;99008.54;;;-4.93;84.61
77482;BME280;66582;43.004;-75.010;2023-02-28T11:36:10;99007.46;;;-4.60;82.11
77482;BME280;66582;43.004;-75.010;2023-02-28T11:38:29;98993.39;;;-3.91;80.72
77482;BME280;66582;43.004;-75.010;2023-02-28T11:41:09;98989.32;;;-3.39;77.06
77482;BME280;66582;43.004;-75.010;2023-02-28T11:43:27;99000.24;;;-4.71;79.31
77482;BME280;66582;43.004;-75.010;2023-02-28T11:45:54;99014.13;;;-5.43;83.41
77482;BME280;66582;43.004;-75.010;2023-02-28T11:48:16;99020.07;;;-4.12;81.47
77482;BME280;66582;43.004;-75.010;2023-02-28T11:50:45;99015.36;;;-3.66;78.58
77482;BME280;66582;43.004;-75.010;2023-02-28T11:53:04;99027.08;;;-5.10;81.27
77482;BME280;66582;43.004;-75.010;2023-02-28T11:55:29;99039.26;;;-5.03;84.03
77482;BME280;66582;43.004;-75.010;2023-02-28T11:58:05;99034.55;;;-5.64;85.44
77482;BME280;66582;43.004;-75.010;2023-02-28T12:00:30;99029.71;;;-4.64;82.59
77482;BME280;66582;43.004;-75.010;2023-02-28T12:02:52;99032.61;;;-3.96;81.65
77482;BME280;66582;43.004;-75.010;2023-02-28T12:05:17;99036.46;;;-4.70;80.86
77482;BME280;66582;43.004;-75.010;2023-02-28T12:07:39;99038.01;;;-4.64;82.30
77482;BME280;66582;43.004;-75.010;2023-02-28T12:10:01;99039.36;;;-3.43;77.77
77482;BME280;66582;43.004;-75.010;2023-02-28T12:12:32;99034.87;;;-3.40;73.08
77482;BME280;66582;43.004;-75.010;2023-02-28T12:14:58;99037.97;;;-3.39;73.97
77482;BME280;66582;43.004;-75.010;2023-02-28T12:17:22;99035.70;;;-2.85;70.52
77482;BME280;66582;43.004;-75.010;2023-02-28T12:19:44;99045.90;;;-4.45;79.01
77482;BME280;66582;43.004;-75.010;2023-02-28T12:22:21;99049.68;;;-3.71;76.76
77482;BME280;66582;43.004;-75.010;2023-02-28T12:24:40;99068.26;;;-4.17;74.55
77482;BME280;66582;43.004;-75.010;2023-02-28T12:26:54;99059.28;;;-5.00;80.30
77482;BME280;66582;43.004;-75.010;2023-02-28T12:29:23;99057.47;;;-4.66;84.89
77482;BME280;66582;43.004;-75.010;2023-02-28T12:31:47;99049.32;;;-2.90;76.34
77482;BME280;66582;43.004;-75.010;2023-02-28T12:34:13;99045.61;;;-2.36;70.66
77482;BME280;66582;43.004;-75.010;2023-02-28T12:36:34;99049.75;;;-2.07;69.76
77482;BME280;66582;43.004;-75.010;2023-02-28T12:39:02;99063.07;;;-3.81;76.59
77482;BME280;66582;43.004;-75.010;2023-02-28T12:41:29;99063.01;;;-4.15;78.29
77482;BME280;66582;43.004;-75.010;2023-02-28T12:43:55;99064.35;;;-3.57;75.42